sensor_id;sensor_type;location;lat;lon;timestamp;P1;durP1;ratioP1;P2;durP2;ratioP2
1759;SDS011;877;46.266;20.062;2023-04-29T00:00:29;10.03;;;7.87;;
1759;SDS011;877;46.266;20.062;2023-04-29T00:02:56;11.17;;;8.00;;
1759;SDS011;877;46.266;20.062;2023-04-29T00:05:23;10.90;;;7.37;;
1759;SDS011;877;46.266;20.062;2023-04-29T00:10:48;10.77;;;7.57;;
1759;SDS011;877;46.266;20.062;2023-04-29T00:13:20;9.73;;;7.63;;
1759;SDS011;877;46.266;20.062;2023-04-29T00:15:46;8.77;;;7.10;;
1759;SDS011;877;46.266;20.062;2023-04-29T00:18:13;12.63;;;8.47;;
1759;SDS011;877;46.266;20.062;2023-04-29T00:20:46;14.80;;;8.13;;
1759;SDS011;877;46.266;20.062;2023-04-29T00:23:23;13.07;;;7.90;;
1759;SDS011;877;46.266;20.062;2023-04-29T00:25:50;10.90;;;8.20;;
1759;SDS011;877;46.266;20.062;2023-04-29T00:28:20;9.73;;;8.17;;
1759;SDS011;877;46.266;20.062;2023-04-29T00:30:53;9.50;;;8.00;;
1759;SDS011;877;46.266;20.062;2023-04-29T00:33:22;10.33;;;7.73;;
1759;SDS011;877;46.266;20.062;2023-04-29T00:35:48;12.17;;;7.30;;
1759;SDS011;877;46.266;20.062;2023-04-29T00:38:14;9.80;;;8.33;;
1759;SDS011;877;46.266;20.062;2023-04-29T00:40:43;10.37;;;7.47;;
1759;SDS011;877;46.266;20.062;2023-04-29T00:43:09;16.40;;;8.20;;
1759;SDS011;877;46.266;20.062;2023-04-29T00:45:39;12.70;;;8.30;;
1759;SDS011;877;46.266;20.062;2023-04-29T00:48:16;11.80;;;8.60;;
1759;SDS011;877;46.266;20.062;2023-04-29T00:50:43;10.37;;;7.90;;
1759;SDS011;877;46.266;20.062;2023-04-29T00:53:15;11.30;;;8.20;;
1759;SDS011;877;46.266;20.062;2023-04-29T00:55:47;15.63;;;7.60;;
1759;SDS011;877;46.266;20.062;2023-04-29T00:58:19;13.50;;;8.20;;
1759;SDS011;877;46.266;20.062;2023-04-29T01:00:48;10.07;;;8.00;;
1759;SDS011;877;46.266;20.062;2023-04-29T01:03:15;12.20;;;8.67;;
1759;SDS011;877;46.266;20.062;2023-04-29T01:05:44;12.70;;;8.90;;
1759;SDS011;877;46.266;20.062;2023-04-29T01:16:03;11.00;;;9.37;;
1759;SDS011;877;46.266;20.062;2023-04-29T01:18:38;16.57;;;9.60;;
1759;SDS011;877;46.266;20.062;2023-04-29T01:21:06;12.03;;;8.80;;
1759;SDS011;877;46.266;20.062;2023-04-29T01:23:34;17.33;;;10.43;;
1759;SDS011;877;46.266;20.062;2023-04-29T01:26:00;10.77;;;7.83;;
1759;SDS011;877;46.266;20.062;2023-04-29T01:31:40;12.97;;;8.93;;
1759;SDS011;877;46.266;20.062;2023-04-29T01:36:46;12.30;;;9.20;;
1759;SDS011;877;46.266;20.062;2023-04-29T01:47:21;11.90;;;9.10;;
1759;SDS011;877;46.266;20.062;2023-04-29T01:49:50;11.50;;;8.43;;
1759;SDS011;877;46.266;20.062;2023-04-29T01:52:17;13.20;;;8.00;;
1759;SDS011;877;46.266;20.062;2023-04-29T01:54:45;11.50;;;8.10;;
1759;SDS011;877;46.266;20.062;2023-04-29T01:57:11;12.87;;;8.60;;
1759;SDS011;877;46.266;20.062;2023-04-29T01:59:37;14.53;;;8.60;;
1759;SDS011;877;46.266;20.062;2023-04-29T02:02:08;13.60;;;7.90;;
1759;SDS011;877;46.266;20.062;2023-04-29T02:04:43;13.77;;;8.77;;
1759;SDS011;877;46.266;20.062;2023-04-29T02:09:42;10.63;;;8.53;;
1759;SDS011;877;46.266;20.062;2023-04-29T02:12:08;10.43;;;8.57;;
1759;SDS011;877;46.266;20.062;2023-04-29T02:14:34;12.67;;;8.03;;
1759;SDS011;877;46.266;20.062;2023-04-29T02:17:03;13.60;;;8.93;;
1759;SDS011;877;46.266;20.062;2023-04-29T02:22:05;9.33;;;8.10;;
1759;SDS011;877;46.266;20.062;2023-04-29T02:24:32;13.93;;;8.23;;
1759;SDS011;877;46.266;20.062;2023-04-29T02:27:02;8.37;;;7.47;;
1759;SDS011;877;46.266;20.062;2023-04-29T02:29:30;9.60;;;7.53;;
1759;SDS011;877;46.266;20.062;2023-04-29T02:31:57;10.20;;;7.10;;
1759;SDS011;877;46.266;20.062;2023-04-29T02:34:23;17.23;;;7.67;;
1759;SDS011;877;46.266;20.062;2023-04-29T02:36:56;8.03;;;6.70;;
1759;SDS011;877;46.266;20.062;2023-04-29T02:39:32;11.40;;;7.10;;
1759;SDS011;877;46.266;20.062;2023-04-29T02:42:00;9.90;;;7.57;;
1759;SDS011;877;46.266;20.062;2023-04-29T02:44:42;13.20;;;6.47;;
1759;SDS011;877;46.266;20.062;2023-04-29T02:47:12;9.23;;;7.53;;
1759;SDS011;877;46.266;20.062;2023-04-29T02:49:46;18.07;;;8.07;;
1759;SDS011;877;46.266;20.062;2023-04-29T02:52:12;9.43;;;6.27;;
1759;SDS011;877;46.266;20.062;2023-04-29T02:54:40;9.53;;;6.60;;
1759;SDS011;877;46.266;20.062;2023-04-29T02:57:08;8.20;;;6.20;;
1759;SDS011;877;46.266;20.062;2023-04-29T03:05:44;11.00;;;7.90;;
1759;SDS011;877;46.266;20.062;2023-04-29T03:08:10;12.33;;;7.27;;
1759;SDS011;877;46.266;20.062;2023-04-29T03:10:37;11.93;;;8.57;;
1759;SDS011;877;46.266;20.062;2023-04-29T03:13:05;10.77;;;7.17;;
1759;SDS011;877;46.266;20.062;2023-04-29T03:18:06;9.70;;;7.10;;
1759;SDS011;877;46.266;20.062;2023-04-29T03:20:33;14.07;;;7.07;;
1759;SDS011;877;46.266;20.062;2023-04-29T03:22:59;8.90;;;8.00;;
1759;SDS011;877;46.266;20.062;2023-04-29T03:27:56;13.83;;;8.50;;
1759;SDS011;877;46.266;20.062;2023-04-29T03:30:26;12.43;;;8.10;;
1759;SDS011;877;46.266;20.062;2023-04-29T03:32:52;12.07;;;9.40;;
1759;SDS011;877;46.266;20.062;2023-04-29T03:35:32;12.07;;;8.07;;
1759;SDS011;877;46.266;20.062;2023-04-29T03:37:59;14.60;;;8.20;;
1759;SDS011;877;46.266;20.062;2023-04-29T03:40:27;9.97;;;7.53;;
1759;SDS011;877;46.266;20.062;2023-04-29T03:43:00;14.23;;;8.33;;
1759;SDS011;877;46.266;20.062;2023-04-29T03:47:59;13.47;;;8.27;;
1759;SDS011;877;46.266;20.062;2023-04-29T03:50:37;11.37;;;7.30;;
1759;SDS011;877;46.266;20.062;2023-04-29T03:55:34;10.90;;;7.23;;
1759;SDS011;877;46.266;20.062;2023-04-29T03:58:08;11.87;;;8.43;;
1759;SDS011;877;46.266;20.062;2023-04-29T04:00:36;10.43;;;8.43;;
1759;SDS011;877;46.266;20.062;2023-04-29T04:03:05;12.13;;;8.10;;
1759;SDS011;877;46.266;20.062;2023-04-29T04:05:31;12.53;;;8.37;;
1759;SDS011;877;46.266;20.062;2023-04-29T04:07:57;8.40;;;6.73;;
1759;SDS011;877;46.266;20.062;2023-04-29T04:10:25;13.23;;;8.43;;
1759;SDS011;877;46.266;20.062;2023-04-29T04:12:52;10.67;;;8.33;;
1759;SDS011;877;46.266;20.062;2023-04-29T04:15:21;10.43;;;8.33;;
1759;SDS011;877;46.266;20.062;2023-04-29T04:23:02;9.57;;;7.43;;
1759;SDS011;877;46.266;20.062;2023-04-29T04:25:31;9.10;;;8.03;;
1759;SDS011;877;46.266;20.062;2023-04-29T04:27:58;12.17;;;8.70;;
1759;SDS011;877;46.266;20.062;2023-04-29T04:30:25;14.10;;;8.60;;
1759;SDS011;877;46.266;20.062;2023-04-29T04:32:56;9.17;;;7.33;;
1759;SDS011;877;46.266;20.062;2023-04-29T04:35:27;12.37;;;7.00;;
1759;SDS011;877;46.266;20.062;2023-04-29T04:43:14;11.37;;;8.60;;
1759;SDS011;877;46.266;20.062;2023-04-29T04:45:42;11.00;;;8.17;;
1759;SDS011;877;46.266;20.062;2023-04-29T04:48:14;10.03;;;7.73;;
1759;SDS011;877;46.266;20.062;2023-04-29T04:53:33;9.27;;;7.40;;
1759;SDS011;877;46.266;20.062;2023-04-29T04:58:55;10.47;;;8.30;;
1759;SDS011;877;46.266;20.062;2023-04-29T05:01:23;10.80;;;7.90;;
1759;SDS011;877;46.266;20.062;2023-04-29T05:03:49;12.50;;;9.10;;
1759;SDS011;877;46.266;20.062;2023-04-29T05:08:58;13.10;;;9.80;;
1759;SDS011;877;46.266;20.062;2023-04-29T05:13:54;13.27;;;8.63;;
1759;SDS011;877;46.266;20.062;2023-04-29T05:16:27;10.70;;;8.73;;
1759;SDS011;877;46.266;20.062;2023-04-29T05:18:56;11.93;;;7.67;;
1759;SDS011;877;46.266;20.062;2023-04-29T05:21:23;11.07;;;7.77;;
1759;SDS011;877;46.266;20.062;2023-04-29T05:23:51;13.07;;;7.80;;
1759;SDS011;877;46.266;20.062;2023-04-29T05:26:18;10.80;;;7.90;;
1759;SDS011;877;46.266;20.062;2023-04-29T05:28:46;11.73;;;8.03;;
1759;SDS011;877;46.266;20.062;2023-04-29T05:31:22;11.07;;;8.17;;
1759;SDS011;877;46.266;20.062;2023-04-29T05:33:59;10.67;;;8.17;;
1759;SDS011;877;46.266;20.062;2023-04-29T05:38:59;9.50;;;7.50;;
1759;SDS011;877;46.266;20.062;2023-04-29T05:43:57;12.20;;;8.67;;
1759;SDS011;877;46.266;20.062;2023-04-29T05:46:25;12.57;;;8.80;;
1759;SDS011;877;46.266;20.062;2023-04-29T05:48:52;12.00;;;8.60;;
1759;SDS011;877;46.266;20.062;2023-04-29T05:51:19;11.97;;;8.90;;
1759;SDS011;877;46.266;20.062;2023-04-29T05:53:46;13.80;;;8.97;;
1759;SDS011;877;46.266;20.062;2023-04-29T05:56:18;12.87;;;8.40;;
1759;SDS011;877;46.266;20.062;2023-04-29T05:59:00;11.07;;;8.50;;
1759;SDS011;877;46.266;20.062;2023-04-29T06:01:26;14.57;;;9.67;;
1759;SDS011;877;46.266;20.062;2023-04-29T06:03:53;11.20;;;9.07;;
1759;SDS011;877;46.266;20.062;2023-04-29T06:06:20;20.70;;;13.73;;
1759;SDS011;877;46.266;20.062;2023-04-29T06:08:48;14.87;;;11.07;;
1759;SDS011;877;46.266;20.062;2023-04-29T06:11:14;12.50;;;9.40;;
1759;SDS011;877;46.266;20.062;2023-04-29T06:13:41;14.13;;;10.80;;
1759;SDS011;877;46.266;20.062;2023-04-29T06:16:15;11.90;;;9.20;;
1759;SDS011;877;46.266;20.062;2023-04-29T06:18:49;10.00;;;8.70;;
1759;SDS011;877;46.266;20.062;2023-04-29T06:21:17;13.43;;;9.30;;
1759;SDS011;877;46.266;20.062;2023-04-29T06:23:45;10.50;;;8.80;;
1759;SDS011;877;46.266;20.062;2023-04-29T06:26:13;11.07;;;9.20;;
1759;SDS011;877;46.266;20.062;2023-04-29T06:28:39;13.47;;;9.70;;
1759;SDS011;877;46.266;20.062;2023-04-29T06:31:07;12.40;;;7.90;;
1759;SDS011;877;46.266;20.062;2023-04-29T06:33:34;13.60;;;10.40;;
1759;SDS011;877;46.266;20.062;2023-04-29T06:38:45;11.97;;;9.03;;
1759;SDS011;877;46.266;20.062;2023-04-29T06:41:12;14.00;;;9.80;;
1759;SDS011;877;46.266;20.062;2023-04-29T06:43:47;11.97;;;8.93;;
1759;SDS011;877;46.266;20.062;2023-04-29T06:46:26;16.37;;;9.53;;
1759;SDS011;877;46.266;20.062;2023-04-29T06:51:56;11.13;;;9.73;;
1759;SDS011;877;46.266;20.062;2023-04-29T06:54:23;13.17;;;9.30;;
1759;SDS011;877;46.266;20.062;2023-04-29T06:56:51;12.17;;;8.77;;
1759;SDS011;877;46.266;20.062;2023-04-29T07:02:12;13.60;;;9.63;;
1759;SDS011;877;46.266;20.062;2023-04-29T07:04:48;13.90;;;9.07;;
1759;SDS011;877;46.266;20.062;2023-04-29T07:07:17;15.60;;;9.20;;
1759;SDS011;877;46.266;20.062;2023-04-29T07:09:44;16.13;;;7.77;;
1759;SDS011;877;46.266;20.062;2023-04-29T07:12:11;12.03;;;8.43;;
1759;SDS011;877;46.266;20.062;2023-04-29T07:14:37;10.13;;;8.47;;
1759;SDS011;877;46.266;20.062;2023-04-29T07:17:09;16.17;;;8.60;;
1759;SDS011;877;46.266;20.062;2023-04-29T07:19:35;9.63;;;7.73;;
1759;SDS011;877;46.266;20.062;2023-04-29T07:24:56;10.30;;;7.73;;
1759;SDS011;877;46.266;20.062;2023-04-29T07:27:22;10.40;;;7.37;;
1759;SDS011;877;46.266;20.062;2023-04-29T07:29:49;8.67;;;7.20;;
1759;SDS011;877;46.266;20.062;2023-04-29T07:32:17;11.60;;;7.70;;
1759;SDS011;877;46.266;20.062;2023-04-29T07:34:47;17.67;;;7.07;;
1759;SDS011;877;46.266;20.062;2023-04-29T07:37:17;11.10;;;7.37;;
1759;SDS011;877;46.266;20.062;2023-04-29T07:39:49;7.33;;;6.50;;
1759;SDS011;877;46.266;20.062;2023-04-29T07:42:16;13.80;;;6.87;;
1759;SDS011;877;46.266;20.062;2023-04-29T07:44:42;9.23;;;7.10;;
1759;SDS011;877;46.266;20.062;2023-04-29T07:47:10;10.60;;;7.50;;
1759;SDS011;877;46.266;20.062;2023-04-29T07:49:41;9.10;;;7.30;;
1759;SDS011;877;46.266;20.062;2023-04-29T07:52:09;9.50;;;7.30;;
1759;SDS011;877;46.266;20.062;2023-04-29T07:54:37;11.30;;;7.30;;
1759;SDS011;877;46.266;20.062;2023-04-29T07:57:03;8.57;;;7.20;;
1759;SDS011;877;46.266;20.062;2023-04-29T07:59:30;10.13;;;7.60;;
1759;SDS011;877;46.266;20.062;2023-04-29T08:01:57;10.53;;;6.77;;
1759;SDS011;877;46.266;20.062;2023-04-29T08:04:24;11.70;;;7.50;;
1759;SDS011;877;46.266;20.062;2023-04-29T08:06:50;7.60;;;6.40;;
1759;SDS011;877;46.266;20.062;2023-04-29T08:09:16;10.73;;;6.80;;
1759;SDS011;877;46.266;20.062;2023-04-29T08:11:42;8.77;;;5.37;;
1759;SDS011;877;46.266;20.062;2023-04-29T08:14:09;6.40;;;4.60;;
1759;SDS011;877;46.266;20.062;2023-04-29T08:16:37;6.60;;;5.00;;
1759;SDS011;877;46.266;20.062;2023-04-29T08:21:41;7.97;;;5.47;;
1759;SDS011;877;46.266;20.062;2023-04-29T08:24:09;7.27;;;4.80;;
1759;SDS011;877;46.266;20.062;2023-04-29T08:26:36;6.33;;;4.63;;
1759;SDS011;877;46.266;20.062;2023-04-29T08:29:02;8.40;;;5.40;;
1759;SDS011;877;46.266;20.062;2023-04-29T08:31:29;7.73;;;5.60;;
1759;SDS011;877;46.266;20.062;2023-04-29T08:33:56;6.17;;;5.07;;
1759;SDS011;877;46.266;20.062;2023-04-29T08:36:23;9.13;;;4.50;;
1759;SDS011;877;46.266;20.062;2023-04-29T08:38:52;10.73;;;4.63;;
1759;SDS011;877;46.266;20.062;2023-04-29T08:41:19;6.93;;;4.30;;
1759;SDS011;877;46.266;20.062;2023-04-29T08:43:45;12.93;;;5.00;;
1759;SDS011;877;46.266;20.062;2023-04-29T08:46:12;8.00;;;4.40;;
1759;SDS011;877;46.266;20.062;2023-04-29T08:48:40;4.70;;;3.87;;
1759;SDS011;877;46.266;20.062;2023-04-29T08:51:07;4.97;;;3.77;;
1759;SDS011;877;46.266;20.062;2023-04-29T08:53:37;7.07;;;4.47;;
1759;SDS011;877;46.266;20.062;2023-04-29T08:56:07;6.33;;;4.50;;
1759;SDS011;877;46.266;20.062;2023-04-29T08:58:35;6.50;;;4.43;;
1759;SDS011;877;46.266;20.062;2023-04-29T09:01:02;5.90;;;4.33;;
1759;SDS011;877;46.266;20.062;2023-04-29T09:03:46;11.40;;;4.60;;
1759;SDS011;877;46.266;20.062;2023-04-29T09:06:17;8.00;;;4.87;;
1759;SDS011;877;46.266;20.062;2023-04-29T09:08:44;6.00;;;4.47;;
1759;SDS011;877;46.266;20.062;2023-04-29T09:11:19;5.47;;;4.30;;
1759;SDS011;877;46.266;20.062;2023-04-29T09:13:46;7.43;;;4.50;;
1759;SDS011;877;46.266;20.062;2023-04-29T09:16:12;6.20;;;4.63;;
1759;SDS011;877;46.266;20.062;2023-04-29T09:18:45;8.67;;;4.30;;
1759;SDS011;877;46.266;20.062;2023-04-29T09:21:11;9.70;;;5.00;;
1759;SDS011;877;46.266;20.062;2023-04-29T09:23:41;7.23;;;3.50;;
1759;SDS011;877;46.266;20.062;2023-04-29T09:26:07;7.00;;;4.60;;
1759;SDS011;877;46.266;20.062;2023-04-29T09:28:33;5.60;;;4.13;;
1759;SDS011;877;46.266;20.062;2023-04-29T09:31:02;7.37;;;4.50;;
1759;SDS011;877;46.266;20.062;2023-04-29T09:33:51;5.90;;;3.93;;
1759;SDS011;877;46.266;20.062;2023-04-29T09:39:03;7.53;;;4.07;;
1759;SDS011;877;46.266;20.062;2023-04-29T09:41:30;5.10;;;3.80;;
1759;SDS011;877;46.266;20.062;2023-04-29T09:44:06;5.40;;;4.13;;
1759;SDS011;877;46.266;20.062;2023-04-29T09:46:33;5.50;;;3.77;;
1759;SDS011;877;46.266;20.062;2023-04-29T09:49:01;5.70;;;4.00;;
1759;SDS011;877;46.266;20.062;2023-04-29T09:51:29;6.00;;;3.70;;
1759;SDS011;877;46.266;20.062;2023-04-29T09:53:59;7.50;;;3.70;;
1759;SDS011;877;46.266;20.062;2023-04-29T09:56:27;5.27;;;3.10;;
1759;SDS011;877;46.266;20.062;2023-04-29T09:58:54;4.80;;;3.90;;
1759;SDS011;877;46.266;20.062;2023-04-29T10:01:23;9.13;;;5.13;;
1759;SDS011;877;46.266;20.062;2023-04-29T10:03:57;6.00;;;4.30;;
1759;SDS011;877;46.266;20.062;2023-04-29T10:06:24;7.00;;;3.53;;
1759;SDS011;877;46.266;20.062;2023-04-29T10:08:51;5.10;;;3.13;;
1759;SDS011;877;46.266;20.062;2023-04-29T10:11:17;5.43;;;3.83;;
1759;SDS011;877;46.266;20.062;2023-04-29T10:13:44;6.37;;;3.90;;
1759;SDS011;877;46.266;20.062;2023-04-29T10:16:24;6.10;;;3.90;;
1759;SDS011;877;46.266;20.062;2023-04-29T10:18:54;7.40;;;3.10;;
1759;SDS011;877;46.266;20.062;2023-04-29T10:21:30;5.50;;;3.60;;
1759;SDS011;877;46.266;20.062;2023-04-29T10:23:57;4.90;;;3.20;;
1759;SDS011;877;46.266;20.062;2023-04-29T10:26:27;5.40;;;3.20;;
1759;SDS011;877;46.266;20.062;2023-04-29T10:28:56;6.07;;;3.97;;
1759;SDS011;877;46.266;20.062;2023-04-29T10:31:27;6.13;;;3.70;;
1759;SDS011;877;46.266;20.062;2023-04-29T10:33:58;6.03;;;2.93;;
1759;SDS011;877;46.266;20.062;2023-04-29T10:36:25;7.63;;;4.07;;
1759;SDS011;877;46.266;20.062;2023-04-29T10:38:54;5.40;;;3.70;;
1759;SDS011;877;46.266;20.062;2023-04-29T10:41:29;4.77;;;3.50;;
1759;SDS011;877;46.266;20.062;2023-04-29T10:43:57;5.13;;;3.37;;
1759;SDS011;877;46.266;20.062;2023-04-29T10:46:24;5.93;;;3.60;;
1759;SDS011;877;46.266;20.062;2023-04-29T10:49:00;7.23;;;4.07;;
1759;SDS011;877;46.266;20.062;2023-04-29T10:59:12;4.63;;;3.20;;
1759;SDS011;877;46.266;20.062;2023-04-29T11:01:51;7.23;;;3.37;;
1759;SDS011;877;46.266;20.062;2023-04-29T11:04:19;6.80;;;3.50;;
1759;SDS011;877;46.266;20.062;2023-04-29T11:06:55;6.20;;;2.90;;
1759;SDS011;877;46.266;20.062;2023-04-29T11:14:25;4.57;;;2.80;;
1759;SDS011;877;46.266;20.062;2023-04-29T11:16:59;5.70;;;3.23;;
1759;SDS011;877;46.266;20.062;2023-04-29T11:19:35;4.67;;;2.50;;
1759;SDS011;877;46.266;20.062;2023-04-29T11:22:08;3.90;;;2.67;;
1759;SDS011;877;46.266;20.062;2023-04-29T11:24:35;5.10;;;3.20;;
1759;SDS011;877;46.266;20.062;2023-04-29T11:27:01;4.43;;;2.60;;
1759;SDS011;877;46.266;20.062;2023-04-29T11:29:32;4.93;;;3.03;;
1759;SDS011;877;46.266;20.062;2023-04-29T11:31:59;4.77;;;3.50;;
1759;SDS011;877;46.266;20.062;2023-04-29T11:34:26;6.23;;;2.90;;
1759;SDS011;877;46.266;20.062;2023-04-29T11:36:52;8.23;;;3.10;;
1759;SDS011;877;46.266;20.062;2023-04-29T11:39:19;5.50;;;2.37;;
1759;SDS011;877;46.266;20.062;2023-04-29T11:41:45;5.63;;;3.30;;
1759;SDS011;877;46.266;20.062;2023-04-29T11:44:11;6.10;;;2.90;;
1759;SDS011;877;46.266;20.062;2023-04-29T11:46:37;8.57;;;3.70;;
1759;SDS011;877;46.266;20.062;2023-04-29T11:49:03;5.83;;;3.20;;
1759;SDS011;877;46.266;20.062;2023-04-29T11:51:30;5.40;;;2.80;;
1759;SDS011;877;46.266;20.062;2023-04-29T11:53:56;5.00;;;2.80;;
1759;SDS011;877;46.266;20.062;2023-04-29T11:56:23;7.50;;;3.00;;
1759;SDS011;877;46.266;20.062;2023-04-29T12:01:24;6.67;;;3.47;;
1759;SDS011;877;46.266;20.062;2023-04-29T12:03:55;5.27;;;3.80;;
1759;SDS011;877;46.266;20.062;2023-04-29T12:06:27;5.33;;;3.07;;
1759;SDS011;877;46.266;20.062;2023-04-29T12:08:57;5.20;;;2.87;;
1759;SDS011;877;46.266;20.062;2023-04-29T12:11:27;6.93;;;3.30;;
1759;SDS011;877;46.266;20.062;2023-04-29T12:13:53;5.97;;;3.20;;
1759;SDS011;877;46.266;20.062;2023-04-29T12:16:21;5.90;;;3.63;;
1759;SDS011;877;46.266;20.062;2023-04-29T12:18:49;5.70;;;3.17;;
1759;SDS011;877;46.266;20.062;2023-04-29T12:21:18;5.73;;;3.03;;
1759;SDS011;877;46.266;20.062;2023-04-29T12:23:46;9.70;;;3.30;;
1759;SDS011;877;46.266;20.062;2023-04-29T12:26:14;6.00;;;3.17;;
1759;SDS011;877;46.266;20.062;2023-04-29T12:28:43;7.13;;;3.40;;
1759;SDS011;877;46.266;20.062;2023-04-29T12:31:13;7.27;;;5.53;;
1759;SDS011;877;46.266;20.062;2023-04-29T12:33:42;7.80;;;4.87;;
1759;SDS011;877;46.266;20.062;2023-04-29T12:36:18;12.10;;;3.60;;
1759;SDS011;877;46.266;20.062;2023-04-29T12:38:44;5.83;;;3.60;;
1759;SDS011;877;46.266;20.062;2023-04-29T12:41:12;5.30;;;3.37;;
1759;SDS011;877;46.266;20.062;2023-04-29T12:43:41;3.90;;;2.83;;
1759;SDS011;877;46.266;20.062;2023-04-29T12:46:09;5.47;;;3.33;;
1759;SDS011;877;46.266;20.062;2023-04-29T12:48:39;10.93;;;3.50;;
1759;SDS011;877;46.266;20.062;2023-04-29T12:51:09;5.03;;;3.00;;
1759;SDS011;877;46.266;20.062;2023-04-29T12:53:36;5.17;;;3.17;;
1759;SDS011;877;46.266;20.062;2023-04-29T12:56:04;5.57;;;2.97;;
1759;SDS011;877;46.266;20.062;2023-04-29T12:58:30;4.70;;;3.00;;
1759;SDS011;877;46.266;20.062;2023-04-29T13:01:04;5.00;;;3.20;;
1759;SDS011;877;46.266;20.062;2023-04-29T13:03:31;4.93;;;3.43;;
1759;SDS011;877;46.266;20.062;2023-04-29T13:06:00;4.57;;;2.83;;
1759;SDS011;877;46.266;20.062;2023-04-29T13:08:26;8.23;;;3.30;;
1759;SDS011;877;46.266;20.062;2023-04-29T13:10:53;5.60;;;3.90;;
1759;SDS011;877;46.266;20.062;2023-04-29T13:13:21;4.10;;;3.00;;
1759;SDS011;877;46.266;20.062;2023-04-29T13:15:47;5.83;;;3.23;;
1759;SDS011;877;46.266;20.062;2023-04-29T13:18:14;3.53;;;2.67;;
1759;SDS011;877;46.266;20.062;2023-04-29T13:20:40;3.80;;;3.00;;
1759;SDS011;877;46.266;20.062;2023-04-29T13:23:09;5.40;;;3.37;;
1759;SDS011;877;46.266;20.062;2023-04-29T13:25:36;4.97;;;3.33;;
1759;SDS011;877;46.266;20.062;2023-04-29T13:28:03;4.70;;;2.70;;
1759;SDS011;877;46.266;20.062;2023-04-29T13:30:29;4.40;;;2.90;;
1759;SDS011;877;46.266;20.062;2023-04-29T13:32:57;6.70;;;3.17;;
1759;SDS011;877;46.266;20.062;2023-04-29T13:35:30;11.77;;;3.40;;
1759;SDS011;877;46.266;20.062;2023-04-29T13:37:56;5.10;;;3.07;;
1759;SDS011;877;46.266;20.062;2023-04-29T13:40:23;6.07;;;3.20;;
1759;SDS011;877;46.266;20.062;2023-04-29T13:42:50;5.20;;;3.03;;
1759;SDS011;877;46.266;20.062;2023-04-29T13:45:17;4.00;;;2.80;;
1759;SDS011;877;46.266;20.062;2023-04-29T13:47:45;6.30;;;3.30;;
1759;SDS011;877;46.266;20.062;2023-04-29T13:50:11;6.97;;;3.40;;
1759;SDS011;877;46.266;20.062;2023-04-29T13:52:37;7.73;;;3.63;;
1759;SDS011;877;46.266;20.062;2023-04-29T13:55:06;6.20;;;3.40;;
1759;SDS011;877;46.266;20.062;2023-04-29T13:57:33;6.27;;;3.60;;
1759;SDS011;877;46.266;20.062;2023-04-29T14:00:01;8.20;;;3.87;;
1759;SDS011;877;46.266;20.062;2023-04-29T14:02:34;8.10;;;3.47;;
1759;SDS011;877;46.266;20.062;2023-04-29T14:05:02;6.67;;;3.53;;
1759;SDS011;877;46.266;20.062;2023-04-29T14:07:29;4.40;;;3.50;;
1759;SDS011;877;46.266;20.062;2023-04-29T14:09:57;5.37;;;4.20;;
1759;SDS011;877;46.266;20.062;2023-04-29T14:12:23;6.50;;;3.73;;
1759;SDS011;877;46.266;20.062;2023-04-29T14:14:49;4.23;;;3.13;;
1759;SDS011;877;46.266;20.062;2023-04-29T14:17:15;7.30;;;2.80;;
1759;SDS011;877;46.266;20.062;2023-04-29T14:19:42;5.00;;;3.73;;
1759;SDS011;877;46.266;20.062;2023-04-29T14:22:09;7.20;;;6.00;;
1759;SDS011;877;46.266;20.062;2023-04-29T14:24:36;7.70;;;3.47;;
1759;SDS011;877;46.266;20.062;2023-04-29T14:27:03;7.07;;;4.33;;
1759;SDS011;877;46.266;20.062;2023-04-29T14:29:31;4.43;;;3.37;;
1759;SDS011;877;46.266;20.062;2023-04-29T14:31:57;5.37;;;2.90;;
1759;SDS011;877;46.266;20.062;2023-04-29T14:34:24;6.80;;;4.43;;
1759;SDS011;877;46.266;20.062;2023-04-29T14:36:53;9.40;;;6.83;;
1759;SDS011;877;46.266;20.062;2023-04-29T14:39:23;8.07;;;4.90;;
1759;SDS011;877;46.266;20.062;2023-04-29T14:41:50;6.67;;;4.17;;
1759;SDS011;877;46.266;20.062;2023-04-29T14:46:46;8.50;;;5.60;;
1759;SDS011;877;46.266;20.062;2023-04-29T14:49:13;13.37;;;8.30;;
1759;SDS011;877;46.266;20.062;2023-04-29T14:51:40;9.10;;;4.50;;
1759;SDS011;877;46.266;20.062;2023-04-29T14:54:07;6.43;;;3.57;;
1759;SDS011;877;46.266;20.062;2023-04-29T14:56:36;11.10;;;4.33;;
1759;SDS011;877;46.266;20.062;2023-04-29T14:59:09;5.43;;;3.37;;
1759;SDS011;877;46.266;20.062;2023-04-29T15:01:35;4.93;;;3.63;;
1759;SDS011;877;46.266;20.062;2023-04-29T15:04:02;6.80;;;4.00;;
1759;SDS011;877;46.266;20.062;2023-04-29T15:06:30;10.00;;;4.43;;
1759;SDS011;877;46.266;20.062;2023-04-29T15:08:56;7.37;;;4.30;;
1759;SDS011;877;46.266;20.062;2023-04-29T15:11:24;6.77;;;4.00;;
1759;SDS011;877;46.266;20.062;2023-04-29T15:13:50;8.20;;;4.10;;
1759;SDS011;877;46.266;20.062;2023-04-29T15:16:16;11.57;;;9.70;;
1759;SDS011;877;46.266;20.062;2023-04-29T15:18:42;7.23;;;4.37;;
1759;SDS011;877;46.266;20.062;2023-04-29T15:21:10;5.40;;;3.57;;
1759;SDS011;877;46.266;20.062;2023-04-29T15:23:37;8.03;;;4.70;;
1759;SDS011;877;46.266;20.062;2023-04-29T15:26:04;6.57;;;3.77;;
1759;SDS011;877;46.266;20.062;2023-04-29T15:28:31;7.00;;;3.47;;
1759;SDS011;877;46.266;20.062;2023-04-29T15:30:59;7.40;;;3.47;;
1759;SDS011;877;46.266;20.062;2023-04-29T15:33:28;7.17;;;3.87;;
1759;SDS011;877;46.266;20.062;2023-04-29T15:35:55;4.50;;;3.90;;
1759;SDS011;877;46.266;20.062;2023-04-29T15:38:22;6.40;;;4.50;;
1759;SDS011;877;46.266;20.062;2023-04-29T15:40:48;5.37;;;3.53;;
1759;SDS011;877;46.266;20.062;2023-04-29T15:43:15;6.40;;;3.90;;
1759;SDS011;877;46.266;20.062;2023-04-29T15:45:43;4.00;;;3.50;;
1759;SDS011;877;46.266;20.062;2023-04-29T15:48:09;5.43;;;3.87;;
1759;SDS011;877;46.266;20.062;2023-04-29T15:50:35;4.80;;;3.47;;
1759;SDS011;877;46.266;20.062;2023-04-29T15:53:03;7.83;;;4.23;;
1759;SDS011;877;46.266;20.062;2023-04-29T15:55:29;7.23;;;4.13;;
1759;SDS011;877;46.266;20.062;2023-04-29T15:57:55;5.63;;;3.47;;
1759;SDS011;877;46.266;20.062;2023-04-29T16:00:22;8.50;;;4.30;;
1759;SDS011;877;46.266;20.062;2023-04-29T16:02:49;6.70;;;4.33;;
1759;SDS011;877;46.266;20.062;2023-04-29T16:05:17;4.40;;;3.70;;
1759;SDS011;877;46.266;20.062;2023-04-29T16:07:43;5.93;;;3.67;;
1759;SDS011;877;46.266;20.062;2023-04-29T16:10:11;5.50;;;3.93;;
1759;SDS011;877;46.266;20.062;2023-04-29T16:12:37;7.50;;;3.87;;
1759;SDS011;877;46.266;20.062;2023-04-29T16:15:03;7.73;;;4.53;;
1759;SDS011;877;46.266;20.062;2023-04-29T16:20:02;5.93;;;4.67;;
1759;SDS011;877;46.266;20.062;2023-04-29T16:22:29;6.90;;;4.10;;
1759;SDS011;877;46.266;20.062;2023-04-29T16:24:55;5.37;;;3.80;;
1759;SDS011;877;46.266;20.062;2023-04-29T16:27:22;8.93;;;5.03;;
1759;SDS011;877;46.266;20.062;2023-04-29T16:29:48;17.80;;;9.60;;
1759;SDS011;877;46.266;20.062;2023-04-29T16:32:15;16.07;;;11.50;;
1759;SDS011;877;46.266;20.062;2023-04-29T16:34:44;7.77;;;4.90;;
1759;SDS011;877;46.266;20.062;2023-04-29T16:37:10;6.63;;;3.93;;
1759;SDS011;877;46.266;20.062;2023-04-29T16:39:39;8.10;;;3.97;;
1759;SDS011;877;46.266;20.062;2023-04-29T16:42:05;5.63;;;4.00;;
1759;SDS011;877;46.266;20.062;2023-04-29T16:44:32;6.00;;;4.43;;
1759;SDS011;877;46.266;20.062;2023-04-29T16:46:59;4.10;;;3.53;;
1759;SDS011;877;46.266;20.062;2023-04-29T16:49:25;7.60;;;4.40;;
1759;SDS011;877;46.266;20.062;2023-04-29T16:51:52;6.67;;;3.70;;
1759;SDS011;877;46.266;20.062;2023-04-29T16:54:21;5.40;;;3.90;;
1759;SDS011;877;46.266;20.062;2023-04-29T16:56:48;5.93;;;3.73;;
1759;SDS011;877;46.266;20.062;2023-04-29T16:59:20;8.60;;;3.87;;
1759;SDS011;877;46.266;20.062;2023-04-29T17:01:47;6.50;;;4.30;;
1759;SDS011;877;46.266;20.062;2023-04-29T17:04:15;6.83;;;4.03;;
1759;SDS011;877;46.266;20.062;2023-04-29T17:06:41;8.07;;;3.67;;